createdAt,value
2019-03-20T00:01:43.690Z,72.90
2019-03-20T00:04:20.003Z,75.65
2019-03-20T00:06:58.271Z,77.82
2019-03-20T00:09:36.776Z,73.22
2019-03-20T00:12:15.316Z,74.80
2019-03-20T00:14:53.797Z,76.70
2019-03-20T00:17:32.139Z,75.45
2019-03-20T00:20:11.174Z,80.97
2019-03-20T00:22:49.674Z,79.32
2019-03-20T00:25:28.124Z,79.95
2019-03-20T00:28:06.713Z,76.97
2019-03-20T00:30:59.352Z,76.47
2019-03-20T00:33:38.094Z,76.33
2019-03-20T00:36:16.527Z,74.82
2019-03-20T00:38:54.931Z,73.72
2019-03-20T00:41:33.473Z,76.87
2019-03-20T00:44:11.969Z,78.42
2019-03-20T00:46:50.775Z,77.75
2019-03-20T00:49:29.197Z,76.80
2019-03-20T00:52:08.076Z,78.80
2019-03-20T00:54:46.477Z,77.80
2019-03-20T00:57:24.971Z,78.65
2019-03-20T01:00:03.377Z,78.17
2019-03-20T01:02:42.327Z,80.90
2019-03-20T01:05:21.924Z,82.80
2019-03-20T01:08:18.158Z,81.05
2019-03-20T01:10:57.820Z,81.67
2019-03-20T01:13:36.375Z,83.58
2019-03-20T01:16:14.605Z,85.40
2019-03-20T01:18:53.018Z,88.97
2019-03-20T01:21:31.837Z,90.45
2019-03-20T01:24:10.254Z,88.75
2019-03-20T01:26:48.851Z,91.55
2019-03-20T01:29:27.343Z,90.65
2019-03-20T01:32:05.491Z,84.95
2019-03-20T01:34:43.516Z,90.10
2019-03-20T01:37:22.129Z,83.52
2019-03-20T01:40:00.581Z,80.75
2019-03-20T01:42:39.331Z,84.25
2019-03-20T01:45:17.687Z,84.52
2019-03-20T01:47:56.480Z,84.37
2019-03-20T01:50:34.653Z,83.78
2019-03-20T01:53:13.532Z,81.80
2019-03-20T01:55:51.523Z,82.57
2019-03-20T01:58:30.038Z,79.70
2019-03-20T02:01:08.601Z,80.87
2019-03-20T02:03:46.905Z,79.20
2019-03-20T02:06:26.451Z,82.30
2019-03-20T02:09:05.346Z,81.35
2019-03-20T02:11:46.048Z,81.00
2019-03-20T02:14:23.924Z,81.08
2019-03-20T02:17:02.234Z,78.57
2019-03-20T02:19:40.750Z,76.57
2019-03-20T02:22:19.003Z,74.65
2019-03-20T02:24:57.589Z,76.02
2019-03-20T02:27:36.358Z,73.60
2019-03-20T02:30:17.249Z,72.92
2019-03-20T02:32:55.917Z,70.28
2019-03-20T02:35:34.751Z,69.15
2019-03-20T02:38:13.862Z,69.67
2019-03-20T02:40:52.159Z,66.10
2019-03-20T02:43:30.729Z,70.37
2019-03-20T02:46:09.088Z,66.75
2019-03-20T02:48:47.703Z,66.50
2019-03-20T02:51:25.594Z,65.17
2019-03-20T02:54:03.936Z,64.30
2019-03-20T02:56:43.739Z,68.02
2019-03-20T02:59:22.149Z,67.12
2019-03-20T03:02:00.430Z,67.20
2019-03-20T03:04:38.486Z,65.55
2019-03-20T03:07:17.024Z,64.90
2019-03-20T03:09:55.269Z,65.20
2019-03-20T03:12:33.712Z,63.60
2019-03-20T03:15:12.408Z,63.00
2019-03-20T03:17:52.097Z,61.48
2019-03-20T03:20:31.726Z,62.23
2019-03-20T03:23:10.042Z,60.67
2019-03-20T03:25:50.188Z,58.38
2019-03-20T03:28:28.059Z,58.40
2019-03-20T03:31:06.417Z,59.00
2019-03-20T03:33:44.800Z,56.77
2019-03-20T03:36:23.497Z,55.90
2019-03-20T03:39:01.989Z,57.88
2019-03-20T03:41:41.549Z,56.90
2019-03-20T03:44:20.670Z,57.60
2019-03-20T03:46:59.206Z,55.48
2019-03-20T03:49:37.850Z,54.18
2019-03-20T03:52:15.794Z,56.55
2019-03-20T03:54:54.769Z,57.75
2019-03-20T03:57:33.312Z,58.00
2019-03-20T04:00:12.480Z,56.48
2019-03-20T04:02:51.421Z,55.75
2019-03-20T04:05:29.593Z,55.35
2019-03-20T04:08:07.906Z,57.67
2019-03-20T04:10:46.342Z,56.28
2019-03-20T04:13:24.506Z,52.98
2019-03-20T04:16:03.403Z,51.42
2019-03-20T04:18:42.049Z,51.60
2019-03-20T04:21:20.279Z,53.28
2019-03-20T04:23:58.685Z,54.55
2019-03-20T04:26:36.686Z,52.98
2019-03-20T04:29:15.164Z,53.70
2019-03-20T04:31:53.518Z,54.15
2019-03-20T04:34:32.284Z,51.85
2019-03-20T04:37:10.878Z,52.83
2019-03-20T04:39:49.129Z,51.33
2019-03-20T04:42:28.096Z,49.98
2019-03-20T04:45:06.641Z,50.55
2019-03-20T04:47:45.489Z,50.78
2019-03-20T04:50:24.114Z,52.40
2019-03-20T04:53:03.104Z,53.08
2019-03-20T04:55:41.596Z,50.38
2019-03-20T04:58:19.885Z,51.70
2019-03-20T05:00:58.321Z,53.95
2019-03-20T05:03:36.608Z,52.73
2019-03-20T05:06:15.077Z,50.25
2019-03-20T05:08:54.793Z,50.70
2019-03-20T05:11:33.858Z,51.68
2019-03-20T05:14:12.614Z,52.20
2019-03-20T05:16:51.152Z,50.40
2019-03-20T05:19:29.520Z,52.20
2019-03-20T05:22:07.761Z,51.18
2019-03-20T05:24:46.587Z,50.55
2019-03-20T05:27:24.913Z,50.50
2019-03-20T05:30:03.592Z,50.92
2019-03-20T05:32:42.049Z,50.60
2019-03-20T05:35:20.605Z,49.03
2019-03-20T05:37:58.936Z,48.78
2019-03-20T05:40:37.253Z,50.23
2019-03-20T05:43:15.580Z,48.60
2019-03-20T05:45:55.163Z,47.90
2019-03-20T05:48:33.792Z,47.80
2019-03-20T05:51:12.018Z,48.90
2019-03-20T05:53:50.357Z,47.65
2019-03-20T05:56:28.767Z,47.83
2019-03-20T05:59:07.220Z,49.23
2019-03-20T06:01:45.643Z,48.02
2019-03-20T06:04:24.221Z,46.00
2019-03-20T06:07:02.475Z,48.10
2019-03-20T06:09:40.764Z,45.40
2019-03-20T06:12:19.422Z,47.58
2019-03-20T06:14:57.868Z,46.83
2019-03-20T06:17:36.556Z,47.40
2019-03-20T06:20:15.843Z,47.17
2019-03-20T06:22:54.000Z,46.60
2019-03-20T06:25:32.399Z,48.23
2019-03-20T06:28:10.732Z,47.35
2019-03-20T06:30:49.311Z,45.67
2019-03-20T06:33:27.817Z,45.25
2019-03-20T06:36:06.386Z,47.78
2019-03-20T06:38:45.417Z,44.48
2019-03-20T06:41:23.941Z,46.02
2019-03-20T06:44:02.591Z,45.98
2019-03-20T06:46:40.874Z,45.85
2019-03-20T06:49:19.045Z,46.35
2019-03-20T06:51:57.502Z,44.85
2019-03-20T06:54:36.224Z,45.90
2019-03-20T06:57:14.728Z,42.95
2019-03-20T07:00:32.419Z,41.00
2019-03-20T07:03:13.655Z,39.00
2019-03-20T07:06:38.158Z,39.92
2019-03-20T07:09:37.223Z,37.98
2019-03-20T07:12:16.995Z,38.00
2019-03-20T07:14:55.555Z,37.60
2019-03-20T07:17:34.235Z,38.13
2019-03-20T07:20:13.497Z,37.53
2019-03-20T07:22:52.502Z,38.60
2019-03-20T07:25:31.369Z,38.33
2019-03-20T07:28:09.826Z,38.63
2019-03-20T07:30:48.072Z,38.75
2019-03-20T07:33:26.408Z,37.45
2019-03-20T07:36:05.478Z,39.15
2019-03-20T07:38:44.082Z,39.58
2019-03-20T07:41:22.516Z,38.25
2019-03-20T07:44:01.087Z,37.60
2019-03-20T07:46:39.248Z,38.98
2019-03-20T07:49:17.639Z,37.03
2019-03-20T07:51:56.074Z,38.23
2019-03-20T07:54:34.859Z,39.80
2019-03-20T07:57:13.352Z,37.98
2019-03-20T07:59:51.914Z,38.02
2019-03-20T08:02:30.135Z,38.65
2019-03-20T08:05:08.561Z,37.03
2019-03-20T08:07:47.013Z,37.15
2019-03-20T08:10:25.452Z,35.98
2019-03-20T08:13:03.588Z,35.83
2019-03-20T08:15:41.840Z,36.23
2019-03-20T08:18:20.157Z,36.28
2019-03-20T08:20:58.667Z,35.50
2019-03-20T08:23:38.595Z,35.03
2019-03-20T08:26:17.204Z,34.13
2019-03-20T08:28:55.636Z,36.05
2019-03-20T08:31:34.004Z,35.15
2019-03-20T08:34:12.245Z,36.25
2019-03-20T08:36:50.906Z,35.88
2019-03-20T08:39:29.364Z,35.63
2019-03-20T08:42:07.980Z,35.68
2019-03-20T08:44:46.108Z,36.05
2019-03-20T08:47:25.091Z,36.45
2019-03-20T08:50:03.281Z,34.98
2019-03-20T08:52:42.127Z,37.67
2019-03-20T08:55:20.762Z,38.67
2019-03-20T08:57:59.695Z,40.15
2019-03-20T09:00:38.290Z,37.73
2019-03-20T09:03:16.933Z,37.33
2019-03-20T09:05:55.441Z,47.75
2019-03-20T09:08:33.598Z,45.88
2019-03-20T09:11:10.331Z,39.20
2019-03-20T09:13:46.954Z,40.20
2019-03-20T09:16:23.986Z,45.45
2019-03-20T09:19:00.443Z,42.20
2019-03-20T09:21:36.858Z,40.30
2019-03-20T09:24:12.984Z,39.73
2019-03-20T09:26:49.508Z,39.08
2019-03-20T09:29:35.410Z,39.10
2019-03-20T09:32:03.345Z,37.67
2019-03-20T09:34:40.088Z,38.10
2019-03-20T09:37:16.827Z,37.50
2019-03-20T09:39:52.812Z,38.90
2019-03-20T09:42:29.102Z,38.15
2019-03-20T09:45:05.774Z,38.75
2019-03-20T09:47:42.132Z,38.67
2019-03-20T09:50:19.698Z,37.53
2019-03-20T09:52:56.383Z,36.95
2019-03-20T09:55:32.800Z,37.28
2019-03-20T09:58:11.787Z,37.90
2019-03-20T10:00:46.958Z,37.73
2019-03-20T10:03:26.382Z,38.10
2019-03-20T10:06:02.793Z,38.02
2019-03-20T10:08:39.255Z,38.60
2019-03-20T10:11:15.807Z,38.53
2019-03-20T10:13:52.098Z,37.93
2019-03-20T10:16:28.627Z,38.48
2019-03-20T10:19:05.044Z,37.73
2019-03-20T10:21:41.045Z,37.67
2019-03-20T10:24:19.943Z,37.00
2019-03-20T10:26:57.612Z,39.42
2019-03-20T10:29:34.144Z,37.50
2019-03-20T10:32:10.831Z,39.10
2019-03-20T10:34:47.250Z,37.98
2019-03-20T10:37:23.716Z,39.85
2019-03-20T10:39:59.691Z,39.15
2019-03-20T10:42:36.118Z,40.12
2019-03-20T10:45:13.268Z,39.27
2019-03-20T10:47:52.549Z,39.67
2019-03-20T10:50:28.229Z,39.70
2019-03-20T10:53:04.696Z,40.05
2019-03-20T10:55:40.538Z,41.73
2019-03-20T10:58:17.067Z,39.63
2019-03-20T11:00:53.664Z,42.38
2019-03-20T11:03:29.275Z,41.68
2019-03-20T11:06:07.429Z,41.53
2019-03-20T11:08:44.073Z,42.40
2019-03-20T11:11:26.961Z,40.38
2019-03-20T11:13:58.034Z,44.88
2019-03-20T11:16:34.297Z,45.67
2019-03-20T11:19:10.806Z,43.25
2019-03-20T11:21:47.603Z,45.55
2019-03-20T11:24:24.040Z,44.88
2019-03-20T11:27:00.245Z,44.75
2019-03-20T11:29:36.583Z,43.58
2019-03-20T11:32:14.356Z,44.18
2019-03-20T11:34:50.886Z,59.27
2019-03-20T11:37:27.120Z,49.80
2019-03-20T11:40:03.782Z,49.88
2019-03-20T11:42:40.908Z,47.08
2019-03-20T11:45:17.556Z,49.23
2019-03-20T11:47:53.997Z,49.15
2019-03-20T11:50:32.754Z,45.95
2019-03-20T11:53:09.550Z,50.65
2019-03-20T11:55:46.168Z,47.62
2019-03-20T11:58:23.101Z,47.58
2019-03-20T12:00:59.800Z,47.85
2019-03-20T12:03:37.233Z,47.10
2019-03-20T12:06:13.569Z,47.80
2019-03-20T12:08:51.247Z,47.85
2019-03-20T12:11:27.719Z,50.17
2019-03-20T12:14:04.375Z,50.12
2019-03-20T12:16:41.184Z,45.20
2019-03-20T12:19:18.861Z,46.95
2019-03-20T12:21:55.193Z,48.75
2019-03-20T12:24:33.120Z,48.75
2019-03-20T12:27:15.174Z,47.85
2019-03-20T12:29:48.436Z,48.92
2019-03-20T12:32:24.612Z,48.68
2019-03-20T12:35:01.386Z,47.78
2019-03-20T12:37:37.505Z,50.23
2019-03-20T12:40:17.839Z,48.92
2019-03-20T12:42:54.318Z,48.55
2019-03-20T12:45:33.584Z,47.45
2019-03-20T12:48:11.731Z,47.33
2019-03-20T12:50:49.300Z,48.52
2019-03-20T12:53:26.348Z,49.90
2019-03-20T12:56:02.788Z,49.48
2019-03-20T12:58:38.888Z,48.42
2019-03-20T13:01:15.834Z,49.08
2019-03-20T13:03:52.099Z,49.08
2019-03-20T13:06:28.782Z,50.65
2019-03-20T13:09:05.539Z,54.20
2019-03-20T13:11:44.006Z,53.52
2019-03-20T13:14:18.898Z,50.88
2019-03-20T13:16:55.175Z,49.35
2019-03-20T13:19:31.808Z,52.15
2019-03-20T13:22:08.300Z,51.50
2019-03-20T13:24:44.888Z,50.63
2019-03-20T13:27:21.543Z,52.45
2019-03-20T13:29:57.565Z,54.03
2019-03-20T13:32:34.753Z,50.75
2019-03-20T13:35:11.928Z,54.75
2019-03-20T13:37:48.457Z,52.23
2019-03-20T13:40:24.958Z,51.83
2019-03-20T13:43:01.340Z,54.60
2019-03-20T13:45:37.771Z,54.40
2019-03-20T13:48:14.630Z,52.20
2019-03-20T13:50:51.478Z,52.65
2019-03-20T13:53:27.662Z,55.85
2019-03-20T13:56:03.744Z,56.48
2019-03-20T13:58:40.528Z,57.48
2019-03-20T14:01:16.793Z,55.17
2019-03-20T14:03:53.495Z,56.63
2019-03-20T14:06:30.058Z,56.85
2019-03-20T14:09:07.646Z,57.60
2019-03-20T14:11:44.411Z,57.13
2019-03-20T14:14:21.060Z,55.65
2019-03-20T14:16:57.408Z,54.20
2019-03-20T14:19:34.282Z,57.08
2019-03-20T14:22:10.821Z,58.00
2019-03-20T14:24:47.139Z,58.38
2019-03-20T14:27:24.166Z,56.25
2019-03-20T14:30:00.477Z,57.30
2019-03-20T14:32:37.251Z,55.00
2019-03-20T14:35:14.330Z,59.42
2019-03-20T14:37:50.757Z,59.58
2019-03-20T14:40:35.325Z,57.45
2019-03-20T14:43:07.850Z,54.33
2019-03-20T14:45:44.089Z,58.10
2019-03-20T14:48:20.752Z,58.02
2019-03-20T14:50:57.171Z,57.60
2019-03-20T14:53:33.824Z,61.02
2019-03-20T14:56:10.112Z,60.33
2019-03-20T14:58:46.552Z,59.77
2019-03-20T15:01:23.144Z,58.15
2019-03-20T15:03:59.579Z,62.13
2019-03-20T15:06:36.121Z,58.58
2019-03-20T15:09:13.515Z,57.60
2019-03-20T15:11:49.840Z,60.52
2019-03-20T15:14:26.528Z,63.10
2019-03-20T15:17:03.294Z,62.53
2019-03-20T15:19:39.550Z,58.23
2019-03-20T15:22:15.728Z,60.00
2019-03-20T15:24:52.126Z,60.60
2019-03-20T15:27:28.500Z,61.92
2019-03-20T15:30:04.929Z,64.67
2019-03-20T15:32:41.130Z,60.52
2019-03-20T15:35:19.222Z,62.50
2019-03-20T15:37:58.697Z,63.10
2019-03-20T15:40:35.267Z,64.67
2019-03-20T15:43:13.984Z,67.05
2019-03-20T15:45:50.586Z,62.83
2019-03-20T15:48:26.989Z,62.40
2019-03-20T15:51:03.963Z,64.47
2019-03-20T15:53:40.170Z,64.30
2019-03-20T15:56:16.716Z,64.30
2019-03-20T15:58:55.345Z,64.07
2019-03-20T16:01:31.676Z,66.02
2019-03-20T16:04:08.690Z,65.17
2019-03-20T16:06:45.001Z,65.57
2019-03-20T16:09:22.701Z,65.15
2019-03-20T16:11:59.152Z,65.28
2019-03-20T16:14:35.665Z,67.47
2019-03-20T16:17:12.171Z,66.40
2019-03-20T16:19:49.091Z,68.07
2019-03-20T16:22:25.585Z,66.33
2019-03-20T16:25:01.845Z,66.70
2019-03-20T16:27:38.599Z,69.22
2019-03-20T16:30:21.451Z,70.40
2019-03-20T16:32:57.964Z,68.15
2019-03-20T16:35:34.507Z,65.15
2019-03-20T16:38:10.855Z,65.42
2019-03-20T16:40:47.544Z,66.28
2019-03-20T16:43:23.981Z,66.75
2019-03-20T16:46:00.821Z,65.05
2019-03-20T16:48:37.054Z,65.67
2019-03-20T16:51:13.416Z,70.28
2019-03-20T16:53:49.568Z,68.67
2019-03-20T16:56:25.985Z,67.30
2019-03-20T16:59:01.996Z,65.72
2019-03-20T17:01:38.222Z,69.17
2019-03-20T17:04:14.981Z,68.05
2019-03-20T17:06:51.437Z,70.40
2019-03-20T17:09:27.794Z,78.28
2019-03-20T17:12:04.721Z,79.50
2019-03-20T17:14:42.088Z,78.22
2019-03-20T17:17:18.731Z,78.20
2019-03-20T17:19:55.104Z,64.15
2019-03-20T17:22:31.434Z,74.50
2019-03-20T17:25:08.175Z,78.52
2019-03-20T17:27:44.241Z,79.32
2019-03-20T17:30:29.522Z,69.62
2019-03-20T17:33:05.813Z,77.00
2019-03-20T17:35:42.108Z,79.95
2019-03-20T17:38:18.441Z,69.05
2019-03-20T17:40:54.827Z,75.05
2019-03-20T17:43:31.300Z,79.45
2019-03-20T17:46:07.797Z,82.60
2019-03-20T17:48:44.520Z,84.65
2019-03-20T17:51:21.238Z,74.10
2019-03-20T17:53:58.069Z,77.20
2019-03-20T17:56:36.760Z,77.82
2019-03-20T17:59:13.796Z,83.00
2019-03-20T18:01:50.638Z,72.80
2019-03-20T18:04:27.139Z,82.47
2019-03-20T18:07:03.363Z,87.55
2019-03-20T18:09:40.840Z,83.42
2019-03-20T18:12:17.150Z,79.72
2019-03-20T18:14:53.869Z,78.00
2019-03-20T18:17:30.268Z,78.12
2019-03-20T18:20:06.748Z,82.95
2019-03-20T18:22:43.388Z,79.07
2019-03-20T18:25:19.929Z,83.52
2019-03-20T18:27:56.242Z,83.10
2019-03-20T18:30:33.286Z,76.80
2019-03-20T18:33:09.947Z,79.30
2019-03-20T18:35:46.598Z,82.55
2019-03-20T18:38:23.114Z,77.78
2019-03-20T18:40:59.628Z,81.20
2019-03-20T18:43:35.821Z,80.77
2019-03-20T18:46:12.603Z,75.30
2019-03-20T18:48:48.601Z,78.22
2019-03-20T18:51:25.060Z,83.47
2019-03-20T18:54:01.703Z,71.85
2019-03-20T18:56:38.582Z,78.95
2019-03-20T18:59:15.627Z,84.28
2019-03-20T19:01:52.295Z,82.80
2019-03-20T19:04:28.417Z,77.58
2019-03-20T19:07:05.406Z,80.10
2019-03-20T19:09:42.938Z,81.78
2019-03-20T19:12:19.849Z,81.32
2019-03-20T19:14:56.396Z,89.42
2019-03-20T19:17:32.925Z,93.00
2019-03-20T19:20:09.810Z,92.88
2019-03-20T19:22:46.109Z,82.42
2019-03-20T19:25:22.459Z,83.67
2019-03-20T19:27:58.680Z,83.78
2019-03-20T19:30:34.919Z,84.35
2019-03-20T19:33:11.614Z,87.55
2019-03-20T19:35:49.069Z,88.85
2019-03-20T19:38:34.483Z,85.42
2019-03-20T19:41:03.092Z,87.25
2019-03-20T19:43:39.506Z,89.52
2019-03-20T19:46:16.089Z,87.42
2019-03-20T19:48:52.468Z,89.50
2019-03-20T19:51:28.818Z,88.30
2019-03-20T19:54:08.574Z,86.30
2019-03-20T19:56:45.048Z,97.80
2019-03-20T19:59:21.571Z,87.12
2019-03-20T20:01:57.706Z,88.67
2019-03-20T20:04:34.048Z,85.28
2019-03-20T20:07:20.197Z,85.03
2019-03-20T20:10:06.519Z,82.33
2019-03-20T20:12:42.828Z,86.95
2019-03-20T20:15:21.764Z,81.15
2019-03-20T20:17:59.409Z,83.22
2019-03-20T20:20:36.259Z,89.22
2019-03-20T20:23:13.445Z,89.50
2019-03-20T20:25:50.305Z,85.00
2019-03-20T20:28:26.443Z,89.25
2019-03-20T20:31:02.833Z,84.87
2019-03-20T20:33:39.207Z,81.05
2019-03-20T20:36:15.747Z,83.47
2019-03-20T20:38:52.115Z,78.12
2019-03-20T20:41:28.900Z,78.12
2019-03-20T20:44:06.786Z,75.28
2019-03-20T20:46:43.147Z,67.65
2019-03-20T20:49:19.815Z,67.90
2019-03-20T20:51:56.595Z,68.87
2019-03-20T20:54:34.200Z,66.28
2019-03-20T20:57:10.590Z,64.53
2019-03-20T20:59:47.418Z,61.50
2019-03-20T21:02:24.890Z,61.68
2019-03-20T21:05:01.558Z,58.20
2019-03-20T21:07:38.251Z,57.33
2019-03-20T21:10:15.460Z,55.90
2019-03-20T21:12:56.633Z,57.88
2019-03-20T21:16:02.330Z,58.33
2019-03-20T21:19:20.927Z,57.27
2019-03-20T21:22:46.471Z,57.80
2019-03-20T21:25:24.775Z,58.17
2019-03-20T21:28:55.507Z,59.83
2019-03-20T21:31:43.975Z,58.98
2019-03-20T21:34:54.792Z,57.98
2019-03-20T21:37:55.875Z,61.10
2019-03-20T21:40:33.045Z,57.33
2019-03-20T21:43:42.535Z,56.73
2019-03-20T21:46:46.606Z,55.50
2019-03-20T21:49:23.767Z,57.98
2019-03-20T21:52:00.850Z,56.28
2019-03-20T21:55:28.243Z,55.40
2019-03-20T21:58:30.033Z,58.17
2019-03-20T22:01:46.591Z,56.80
2019-03-20T22:04:23.798Z,55.38
2019-03-20T22:07:27.514Z,56.42
2019-03-20T22:10:58.219Z,57.88
2019-03-20T22:13:52.584Z,56.95
2019-03-20T22:17:01.825Z,57.78
2019-03-20T22:20:11.469Z,58.13
2019-03-20T22:23:15.362Z,56.00
2019-03-20T22:26:21.152Z,58.30
2019-03-20T22:29:09.975Z,60.30
2019-03-20T22:31:51.778Z,58.35
2019-03-20T22:35:15.440Z,59.05
2019-03-20T22:37:52.306Z,59.50
2019-03-20T22:41:14.103Z,59.60
2019-03-20T22:44:03.990Z,61.70
2019-03-20T22:47:34.126Z,60.28
2019-03-20T22:50:33.022Z,59.48
2019-03-20T22:53:47.027Z,59.23
2019-03-20T22:56:55.200Z,60.05
2019-03-20T22:59:32.426Z,58.48
2019-03-20T23:02:41.379Z,61.15
2019-03-20T23:05:18.329Z,62.43
2019-03-20T23:07:55.389Z,60.75
2019-03-20T23:10:32.790Z,62.10
2019-03-20T23:13:18.460Z,63.95
2019-03-20T23:15:48.719Z,64.77
2019-03-20T23:18:25.538Z,68.37
2019-03-20T23:21:03.528Z,64.80
2019-03-20T23:23:41.472Z,66.22
2019-03-20T23:26:18.620Z,63.92
2019-03-20T23:28:55.546Z,64.45
2019-03-20T23:31:32.909Z,67.03
2019-03-20T23:34:10.119Z,62.98
2019-03-20T23:36:46.714Z,62.90
2019-03-20T23:39:23.832Z,63.20
2019-03-20T23:42:00.875Z,62.60
2019-03-20T23:44:38.080Z,63.17
2019-03-20T23:47:15.271Z,59.85
2019-03-20T23:49:52.241Z,65.78
2019-03-20T23:52:29.273Z,64.05
2019-03-20T23:55:06.162Z,66.35
2019-03-20T23:57:43.463Z,65.57
